createdAt,value
2023-04-15T00:00:27.102Z,19.52
2023-04-15T00:03:30.005Z,20.47
2023-04-15T00:06:32.534Z,14.18
2023-04-15T00:09:34.774Z,18.55
2023-04-15T00:12:37.126Z,16.63
2023-04-15T00:15:39.519Z,18.80
2023-04-15T00:18:42.267Z,16.30
2023-04-15T00:21:44.489Z,16.70
2023-04-15T00:24:47.044Z,17.10
2023-04-15T00:27:49.734Z,18.83
2023-04-15T00:30:52.053Z,17.35
2023-04-15T00:33:54.408Z,18.93
2023-04-15T00:36:57.701Z,14.68
2023-04-15T00:39:59.924Z,16.83
2023-04-15T00:43:02.520Z,17.02
2023-04-15T00:46:06.107Z,16.23
2023-04-15T00:49:08.509Z,14.93
2023-04-15T00:52:10.784Z,14.40
2023-04-15T00:55:13.097Z,16.77
2023-04-15T00:58:16.112Z,15.77
2023-04-15T01:01:22.571Z,16.80
2023-04-15T01:04:25.476Z,16.03
2023-04-15T01:07:27.957Z,16.95
2023-04-15T01:10:31.847Z,19.08
2023-04-15T01:13:34.710Z,18.15
2023-04-15T01:16:39.901Z,18.80
2023-04-15T01:19:42.406Z,18.20
2023-04-15T01:22:45.472Z,17.38
2023-04-15T01:25:49.403Z,17.52
2023-04-15T01:28:51.779Z,17.13
2023-04-15T01:31:56.075Z,18.02
2023-04-15T01:35:01.740Z,17.07
2023-04-15T01:38:06.446Z,15.52
2023-04-15T01:41:08.819Z,18.25
2023-04-15T01:44:11.163Z,18.48
2023-04-15T01:47:15.556Z,16.90
2023-04-15T01:50:18.016Z,15.73
2023-04-15T01:53:20.780Z,15.73
2023-04-15T01:56:24.536Z,19.30
2023-04-15T01:59:27.444Z,18.50
2023-04-15T02:02:31.070Z,18.00
2023-04-15T02:05:33.871Z,17.77
2023-04-15T02:08:36.115Z,15.95
2023-04-15T02:11:39.254Z,17.70
2023-04-15T02:14:41.595Z,15.45
2023-04-15T02:17:46.135Z,18.17
2023-04-15T02:20:52.695Z,17.30
2023-04-15T02:23:54.982Z,16.77
2023-04-15T02:26:57.410Z,18.00
2023-04-15T02:29:59.741Z,15.85
2023-04-15T02:33:02.293Z,15.57
2023-04-15T02:36:05.124Z,18.07
2023-04-15T02:39:07.432Z,16.10
2023-04-15T02:42:09.932Z,15.75
2023-04-15T02:45:13.012Z,16.38
2023-04-15T02:48:18.987Z,16.95
2023-04-15T02:51:26.014Z,14.70
2023-04-15T02:54:32.660Z,15.63
2023-04-15T02:57:37.303Z,15.68
2023-04-15T03:00:42.024Z,15.10
2023-04-15T03:03:44.495Z,16.17
2023-04-15T03:06:46.910Z,16.27
2023-04-15T03:09:49.321Z,14.77
2023-04-15T03:12:51.736Z,16.52
2023-04-15T03:15:56.891Z,18.35
2023-04-15T03:18:59.476Z,20.58
2023-04-15T03:22:01.955Z,16.37
2023-04-15T03:25:04.623Z,14.02
2023-04-15T03:28:08.584Z,16.50
2023-04-15T03:31:11.040Z,16.58
2023-04-15T03:34:13.327Z,17.83
2023-04-15T03:37:16.162Z,16.33
2023-04-15T03:40:18.553Z,19.52
2023-04-15T03:43:21.340Z,18.27
2023-04-15T03:46:23.765Z,17.73
2023-04-15T03:49:26.071Z,16.85
2023-04-15T03:52:28.339Z,16.27
2023-04-15T03:55:30.635Z,19.10
2023-04-15T03:58:32.941Z,18.95
2023-04-15T04:01:35.210Z,15.63
2023-04-15T04:04:37.649Z,16.92
2023-04-15T04:07:39.952Z,15.30
2023-04-15T04:10:42.843Z,15.30
2023-04-15T04:13:45.090Z,16.75
2023-04-15T04:16:47.396Z,15.35
2023-04-15T04:19:49.712Z,14.85
2023-04-15T04:22:52.038Z,16.50
2023-04-15T04:25:54.338Z,15.48
2023-04-15T04:28:56.572Z,16.20
2023-04-15T04:31:58.913Z,15.38
2023-04-15T04:35:01.167Z,15.27
2023-04-15T04:38:04.412Z,15.47
2023-04-15T04:41:06.721Z,14.35
2023-04-15T04:44:08.964Z,14.68
2023-04-15T04:47:11.557Z,14.25
2023-04-15T04:50:13.932Z,14.98
2023-04-15T04:53:16.398Z,12.43
2023-04-15T04:56:18.657Z,13.32
2023-04-15T04:59:20.896Z,14.82
2023-04-15T05:02:23.364Z,12.20
2023-04-15T05:05:25.775Z,12.73
2023-04-15T05:08:28.044Z,12.37
2023-04-15T05:11:30.258Z,11.68
2023-04-15T05:14:33.382Z,9.82
2023-04-15T05:17:35.689Z,13.50
2023-04-15T05:20:38.344Z,13.70
2023-04-15T05:23:41.080Z,10.80
2023-04-15T05:26:43.356Z,11.32
2023-04-15T05:29:45.899Z,14.85
2023-04-15T05:32:48.452Z,8.90
2023-04-15T05:35:50.724Z,8.18
2023-04-15T05:38:53.006Z,9.43
2023-04-15T05:41:55.293Z,11.65
2023-04-15T05:44:57.562Z,10.52
2023-04-15T05:47:59.871Z,10.77
2023-04-15T05:51:02.171Z,7.15
2023-04-15T05:54:04.471Z,6.90
2023-04-15T05:57:07.985Z,10.45
2023-04-15T06:00:10.890Z,8.00
2023-04-15T06:03:13.498Z,6.07
2023-04-15T06:06:15.920Z,7.43
2023-04-15T06:09:18.228Z,4.10
2023-04-15T06:12:20.796Z,5.55
2023-04-15T06:15:23.134Z,7.85
2023-04-15T06:18:25.993Z,3.42
2023-04-15T06:21:28.447Z,6.10
2023-04-15T06:24:31.561Z,6.17
2023-04-15T06:27:35.016Z,7.50
2023-04-15T06:30:38.550Z,6.82
2023-04-15T06:33:40.872Z,11.07
2023-04-15T06:36:43.721Z,6.15
2023-04-15T06:39:46.016Z,6.20
2023-04-15T06:42:48.372Z,5.82
2023-04-15T06:45:51.778Z,4.88
2023-04-15T06:48:54.094Z,8.68
2023-04-15T06:51:57.718Z,6.60
2023-04-15T06:55:03.202Z,6.43
2023-04-15T06:58:05.930Z,3.83
2023-04-15T07:01:08.314Z,5.70
2023-04-15T07:04:11.295Z,4.75
2023-04-15T07:07:13.592Z,3.58
2023-04-15T07:10:16.096Z,4.33
2023-04-15T07:13:18.418Z,5.10
2023-04-15T07:16:21.252Z,4.63
2023-04-15T07:19:23.601Z,4.97
2023-04-15T07:22:26.358Z,3.47
2023-04-15T07:25:28.633Z,5.13
2023-04-15T07:28:31.822Z,5.20
2023-04-15T07:31:34.180Z,4.85
2023-04-15T07:34:37.589Z,2.90
2023-04-15T07:37:39.895Z,5.72
2023-04-15T07:40:42.504Z,2.83
2023-04-15T07:43:45.363Z,3.63
2023-04-15T07:46:47.953Z,3.10
2023-04-15T07:49:51.571Z,4.18
2023-04-15T07:52:53.922Z,4.60
2023-04-15T07:55:56.180Z,4.17
2023-04-15T07:58:58.452Z,3.72
2023-04-15T08:02:00.896Z,3.38
2023-04-15T08:05:04.446Z,3.83
2023-04-15T08:08:07.123Z,4.47
2023-04-15T08:11:09.449Z,4.07
2023-04-15T08:14:11.742Z,2.75
2023-04-15T08:17:14.047Z,3.00
2023-04-15T08:20:16.473Z,3.13
2023-04-15T08:23:19.516Z,1.67
2023-04-15T08:26:21.796Z,5.43
2023-04-15T08:29:24.632Z,1.90
2023-04-15T08:32:27.314Z,1.90
2023-04-15T08:35:29.666Z,1.50
2023-04-15T08:38:42.388Z,2.22
2023-04-15T08:41:52.297Z,2.37
2023-04-15T08:44:56.886Z,2.22
2023-04-15T08:48:01.123Z,1.05
2023-04-15T08:51:03.774Z,3.15
2023-04-15T08:54:07.147Z,1.98
2023-04-15T08:57:09.452Z,2.20
2023-04-15T09:00:14.234Z,1.50
2023-04-15T09:03:17.831Z,1.63
2023-04-15T09:06:21.696Z,1.60
2023-04-15T09:09:24.076Z,2.10
2023-04-15T09:12:26.696Z,1.53
2023-04-15T09:15:30.421Z,1.80
2023-04-15T09:18:35.691Z,1.30
2023-04-15T09:21:38.058Z,1.27
2023-04-15T09:24:42.327Z,3.80
2023-04-15T09:27:49.391Z,1.93
2023-04-15T09:31:02.771Z,1.52
2023-04-15T09:34:05.901Z,2.13
2023-04-15T09:37:10.942Z,2.25
2023-04-15T09:40:14.026Z,2.65
2023-04-15T09:43:17.457Z,1.63
2023-04-15T09:46:20.206Z,1.50
2023-04-15T09:49:23.354Z,2.28
2023-04-15T09:52:27.430Z,1.30
2023-04-15T09:55:33.503Z,2.70
2023-04-15T09:58:38.714Z,0.83
2023-04-15T10:01:42.689Z,1.88
2023-04-15T10:04:49.704Z,1.75
2023-04-15T10:07:52.048Z,1.77
2023-04-15T10:10:54.923Z,1.65
2023-04-15T10:13:57.696Z,3.93
2023-04-15T10:17:03.350Z,3.65
2023-04-15T10:20:07.286Z,3.30
2023-04-15T10:23:11.517Z,3.47
2023-04-15T10:26:16.244Z,4.80
2023-04-15T10:29:18.702Z,2.60
2023-04-15T10:32:22.440Z,1.73
2023-04-15T10:35:24.872Z,2.08
2023-04-15T10:38:43.946Z,2.50
2023-04-15T10:41:46.264Z,2.50
2023-04-15T10:44:56.610Z,1.40
2023-04-15T10:48:03.328Z,1.83
2023-04-15T10:51:06.079Z,1.77
2023-04-15T10:54:32.831Z,0.85
2023-04-15T10:57:38.430Z,1.27
2023-04-15T11:00:40.706Z,1.37
2023-04-15T11:03:43.994Z,0.82
2023-04-15T11:06:46.721Z,2.63
2023-04-15T11:09:49.071Z,3.47
2023-04-15T11:12:59.603Z,0.70
2023-04-15T11:16:03.601Z,0.83
2023-04-15T11:19:06.094Z,1.38
2023-04-15T11:22:12.646Z,1.33
2023-04-15T11:25:29.581Z,1.02
2023-04-15T11:28:32.945Z,1.05
2023-04-15T11:31:35.319Z,1.33
2023-04-15T11:34:37.647Z,0.55
2023-04-15T11:37:40.127Z,1.13
2023-04-15T11:40:46.186Z,3.65
2023-04-15T11:43:50.535Z,0.60
2023-04-15T11:46:52.955Z,2.90
2023-04-15T11:49:55.313Z,0.55
2023-04-15T11:52:59.563Z,0.50
2023-04-15T11:56:02.015Z,0.47
2023-04-15T11:59:04.420Z,1.30
2023-04-15T12:02:14.465Z,1.13
2023-04-15T12:05:17.028Z,0.70
2023-04-15T12:08:19.406Z,1.63
2023-04-15T12:11:31.037Z,1.23
2023-04-15T12:14:34.162Z,0.45
2023-04-15T12:17:50.801Z,0.50
2023-04-15T12:20:54.745Z,0.68
2023-04-15T12:23:58.296Z,0.70
2023-04-15T12:27:08.531Z,1.77
2023-04-15T12:30:13.828Z,0.95
2023-04-15T12:33:20.576Z,0.50
2023-04-15T12:36:23.693Z,1.10
2023-04-15T12:39:30.514Z,0.90
2023-04-15T12:42:33.163Z,2.47
2023-04-15T12:45:35.485Z,0.68
2023-04-15T12:48:37.801Z,1.20
2023-04-15T12:51:40.207Z,1.45
2023-04-15T12:54:45.074Z,1.00
2023-04-15T12:57:47.328Z,1.33
2023-04-15T13:00:50.143Z,0.70
2023-04-15T13:03:53.004Z,0.80
2023-04-15T13:06:56.246Z,0.70
2023-04-15T13:09:58.487Z,0.30
2023-04-15T13:13:00.753Z,0.93
2023-04-15T13:16:03.294Z,1.00
2023-04-15T13:19:05.638Z,0.80
2023-04-15T13:22:08.914Z,1.48
2023-04-15T13:25:14.121Z,1.50
2023-04-15T13:28:16.417Z,0.73
2023-04-15T13:31:18.722Z,1.35
2023-04-15T13:34:21.070Z,2.07
2023-04-15T13:37:31.659Z,1.58
2023-04-15T13:40:33.955Z,0.93
2023-04-15T13:43:36.737Z,3.72
2023-04-15T13:46:40.584Z,0.80
2023-04-15T13:49:42.889Z,0.73
2023-04-15T13:52:45.197Z,0.60
2023-04-15T13:55:47.484Z,0.82
2023-04-15T13:58:49.941Z,1.02
2023-04-15T14:01:53.145Z,1.10
2023-04-15T14:04:55.494Z,0.83
2023-04-15T14:07:59.189Z,0.70
2023-04-15T14:11:01.487Z,2.13
2023-04-15T14:14:03.920Z,0.95
2023-04-15T14:17:10.219Z,1.92
2023-04-15T14:20:13.945Z,3.53
2023-04-15T14:23:17.338Z,2.15
2023-04-15T14:26:20.025Z,2.67
2023-04-15T14:29:22.370Z,3.42
2023-04-15T14:32:26.399Z,2.25
2023-04-15T14:35:28.867Z,2.63
2023-04-15T14:38:31.553Z,2.85
2023-04-15T14:41:34.356Z,4.57
2023-04-15T14:44:36.664Z,3.53
2023-04-15T14:47:39.114Z,3.58
2023-04-15T14:50:41.466Z,2.90
2023-04-15T14:53:44.050Z,2.92
2023-04-15T14:56:46.349Z,2.53
2023-04-15T14:59:48.610Z,3.40
2023-04-15T15:02:51.060Z,5.38
2023-04-15T15:05:53.561Z,5.13
2023-04-15T15:08:56.008Z,4.55
2023-04-15T15:11:58.364Z,5.72
2023-04-15T15:15:09.169Z,4.10
2023-04-15T15:18:19.615Z,3.55
2023-04-15T15:21:22.108Z,2.13
2023-04-15T15:24:24.352Z,2.10
2023-04-15T15:27:26.683Z,1.85
2023-04-15T15:30:29.101Z,1.80
2023-04-15T15:33:32.041Z,1.50
2023-04-15T15:36:34.293Z,2.87
2023-04-15T15:39:36.745Z,1.60
2023-04-15T15:42:39.022Z,1.30
2023-04-15T15:45:41.524Z,1.42
2023-04-15T15:48:44.173Z,0.85
2023-04-15T15:51:46.849Z,0.73
2023-04-15T15:54:49.222Z,1.17
2023-04-15T15:57:51.784Z,0.88
2023-04-15T16:00:54.107Z,0.90
2023-04-15T16:03:56.570Z,1.38
2023-04-15T16:06:59.001Z,1.47
2023-04-15T16:10:01.289Z,1.15
2023-04-15T16:13:03.640Z,0.82
2023-04-15T16:16:06.211Z,4.13
2023-04-15T16:19:08.614Z,2.88
2023-04-15T16:22:11.224Z,1.80
2023-04-15T16:25:13.559Z,2.08
2023-04-15T16:28:25.603Z,2.92
2023-04-15T16:31:29.003Z,1.65
2023-04-15T16:34:31.250Z,2.90
2023-04-15T16:37:34.581Z,3.73
2023-04-15T16:40:37.608Z,3.85
2023-04-15T16:43:39.967Z,3.10
2023-04-15T16:46:42.299Z,3.95
2023-04-15T16:49:44.523Z,2.97
2023-04-15T16:52:46.807Z,3.00
2023-04-15T16:55:49.094Z,2.80
2023-04-15T16:58:51.339Z,2.97
2023-04-15T17:01:56.765Z,4.85
2023-04-15T17:04:59.148Z,2.95
2023-04-15T17:08:01.499Z,3.30
2023-04-15T17:11:03.947Z,2.92
2023-04-15T17:14:09.092Z,4.05
2023-04-15T17:17:11.413Z,2.50
2023-04-15T17:20:14.155Z,4.18
2023-04-15T17:23:16.497Z,3.30
2023-04-15T17:26:19.323Z,19.33
2023-04-15T17:29:23.538Z,4.35
2023-04-15T17:32:31.745Z,2.63
2023-04-15T17:35:34.270Z,3.40
2023-04-15T17:38:36.540Z,4.00
2023-04-15T17:41:38.785Z,4.15
2023-04-15T17:44:41.246Z,3.40
2023-04-15T17:47:43.633Z,4.97
2023-04-15T17:50:46.174Z,3.05
2023-04-15T17:53:48.865Z,3.50
2023-04-15T17:56:51.720Z,4.50
2023-04-15T17:59:54.122Z,4.50
2023-04-15T18:02:56.579Z,4.75
2023-04-15T18:06:00.716Z,4.95
2023-04-15T18:09:04.111Z,4.93
2023-04-15T18:12:07.792Z,4.60
2023-04-15T18:15:10.884Z,5.45
2023-04-15T18:18:13.132Z,7.20
2023-04-15T18:21:15.392Z,6.22
2023-04-15T18:24:17.976Z,6.37
2023-04-15T18:27:20.626Z,8.18
2023-04-15T18:30:23.696Z,6.82
2023-04-15T18:33:25.992Z,6.72
2023-04-15T18:36:28.251Z,6.53
2023-04-15T18:39:31.046Z,7.10
2023-04-15T18:42:33.317Z,6.15
2023-04-15T18:45:36.278Z,5.60
2023-04-15T18:48:38.607Z,5.90
2023-04-15T18:51:41.688Z,5.68
2023-04-15T18:54:43.928Z,5.30
2023-04-15T18:57:46.715Z,7.90
2023-04-15T19:00:50.854Z,7.00
2023-04-15T19:03:53.170Z,7.07
2023-04-15T19:06:55.445Z,8.15
2023-04-15T19:09:57.947Z,6.37
2023-04-15T19:13:00.526Z,9.73
2023-04-15T19:16:03.318Z,8.55
2023-04-15T19:19:06.813Z,7.65
2023-04-15T19:22:09.824Z,8.60
2023-04-15T19:25:12.152Z,7.53
2023-04-15T19:28:16.423Z,8.77
2023-04-15T19:31:18.818Z,8.00
2023-04-15T19:34:21.373Z,8.13
2023-04-15T19:37:25.832Z,7.88
2023-04-15T19:40:28.098Z,7.07
2023-04-15T19:43:32.769Z,6.90
2023-04-15T19:46:35.112Z,8.20
2023-04-15T19:49:38.033Z,9.75
2023-04-15T19:52:40.316Z,10.63
2023-04-15T19:55:42.618Z,8.67
2023-04-15T19:58:46.978Z,9.48
2023-04-15T20:01:49.287Z,16.83
2023-04-15T20:04:51.770Z,16.55
2023-04-15T20:07:54.053Z,12.57
2023-04-15T20:10:57.186Z,14.50
2023-04-15T20:13:59.518Z,15.48
2023-04-15T20:17:02.334Z,11.85
2023-04-15T20:20:06.554Z,12.20
2023-04-15T20:23:08.811Z,11.85
2023-04-15T20:26:11.146Z,16.73
2023-04-15T20:29:14.116Z,20.02
2023-04-15T20:32:17.874Z,15.73
2023-04-15T20:35:20.626Z,13.32
2023-04-15T20:38:22.903Z,14.43
2023-04-15T20:41:25.568Z,13.43
2023-04-15T20:44:27.843Z,16.23
2023-04-15T20:47:30.319Z,13.90
2023-04-15T20:50:32.686Z,12.70
2023-04-15T20:53:35.073Z,14.65
2023-04-15T20:56:37.343Z,14.17
2023-04-15T20:59:39.585Z,15.30
2023-04-15T21:02:41.951Z,18.35
2023-04-15T21:05:44.302Z,23.75
2023-04-15T21:08:46.585Z,18.92
2023-04-15T21:14:54.762Z,16.85
2023-04-15T21:17:57.086Z,18.23
2023-04-15T21:21:00.986Z,15.05
2023-04-15T21:24:03.252Z,18.50
2023-04-15T21:27:06.790Z,18.80
2023-04-15T21:30:09.489Z,17.42
2023-04-15T21:33:11.854Z,16.92
2023-04-15T21:36:14.113Z,16.02
2023-04-15T21:39:17.175Z,18.23
2023-04-15T21:42:19.513Z,16.67
2023-04-15T21:45:21.835Z,16.15
2023-04-15T21:48:24.174Z,16.98
2023-04-15T21:51:29.632Z,16.20
2023-04-15T21:54:32.982Z,17.42
2023-04-15T21:57:35.230Z,16.63
2023-04-15T22:00:39.139Z,17.60
2023-04-15T22:03:42.795Z,19.45
2023-04-15T22:06:45.249Z,15.65
2023-04-15T22:09:47.579Z,16.50
2023-04-15T22:12:49.916Z,15.33
2023-04-15T22:15:52.145Z,17.83
2023-04-15T22:18:55.329Z,17.15
2023-04-15T22:21:58.867Z,18.48
2023-04-15T22:25:01.153Z,20.73
2023-04-15T22:28:06.959Z,19.53
2023-04-15T22:31:09.345Z,19.63
2023-04-15T22:34:11.734Z,19.65
2023-04-15T22:37:14.157Z,20.55
2023-04-15T22:40:16.588Z,20.42
2023-04-15T22:43:18.829Z,22.73
2023-04-15T22:46:27.061Z,23.58
2023-04-15T22:49:29.482Z,24.08
2023-04-15T22:52:31.818Z,24.27
2023-04-15T22:55:34.123Z,23.27
2023-04-15T22:58:36.359Z,21.97
2023-04-15T23:01:38.668Z,24.13
2023-04-15T23:04:41.116Z,23.98
2023-04-15T23:07:43.540Z,27.38
2023-04-15T23:10:46.576Z,29.48
2023-04-15T23:13:50.613Z,27.03
2023-04-15T23:16:52.964Z,28.55
2023-04-15T23:19:55.205Z,28.08
2023-04-15T23:22:57.555Z,29.75
2023-04-15T23:26:01.314Z,27.80
2023-04-15T23:29:03.778Z,27.80
2023-04-15T23:32:06.652Z,23.88
2023-04-15T23:35:09.512Z,23.08
2023-04-15T23:38:11.856Z,26.33
2023-04-15T23:41:14.181Z,22.17
2023-04-15T23:44:16.480Z,21.67
2023-04-15T23:47:18.825Z,20.02
2023-04-15T23:50:21.157Z,21.83
2023-04-15T23:53:23.463Z,23.55
2023-04-15T23:56:25.778Z,23.45
2023-04-15T23:59:28.061Z,20.93
